Time;durP1;ratioP1;P1;durP2;ratioP2;P2;SDS_P1;SDS_P2;PMS_P1;PMS_P2;Temp;Humidity;BMP_temperature;BMP_pressure;BME280_temperature;BME280_humidity;BME280_pressure;Samples;Min_cycle;Max_cycle;Signal;HPM_P1;HPM_P2
2022/06/25 00:02:02;;;;;;;6.43;1.35;;;19.40;99.90;;;;;;7398506;19;20142;-87
2022/06/25 00:07:13;;;;;;;1.73;1.20;;;19.40;99.90;;;;;;7398742;19;20479;-85
2022/06/25 00:09:39;;;;;;;1.75;1.20;;;19.50;99.90;;;;;;7401452;19;20142;-84
2022/06/25 00:14:50;;;;;;;2.70;0.90;;;19.70;99.90;;;;;;7410831;19;20126;-83
2022/06/25 00:17:15;;;;;;;2.47;1.33;;;19.60;99.90;;;;;;7398320;19;20152;-85
2022/06/25 00:19:41;;;;;;;1.40;1.02;;;19.70;99.90;;;;;;7395766;19;20276;-86
2022/06/25 00:22:07;;;;;;;2.28;1.30;;;19.60;99.90;;;;;;7392415;19;20148;-85
2022/06/25 00:24:33;;;;;;;1.40;0.98;;;19.60;99.90;;;;;;7397145;19;20251;-83
2022/06/25 00:26:59;;;;;;;3.42;1.20;;;19.60;99.90;;;;;;7398742;19;20157;-87
2022/06/25 00:29:25;;;;;;;1.20;1.10;;;19.60;99.90;;;;;;7396577;19;20809;-85
2022/06/25 00:31:51;;;;;;;3.35;1.13;;;19.50;99.90;;;;;;7396131;19;20143;-87
2022/06/25 00:34:16;;;;;;;2.25;1.00;;;19.40;99.90;;;;;;7401251;19;20178;-86
2022/06/25 00:36:42;;;;;;;1.55;1.05;;;19.30;99.90;;;;;;7402138;19;20149;-85
2022/06/25 00:39:08;;;;;;;9.25;3.20;;;19.50;99.90;;;;;;7405884;19;20138;-83
2022/06/25 00:41:34;;;;;;;2.05;0.98;;;19.50;99.90;;;;;;7398197;19;20429;-85
2022/06/25 00:44:06;;;;;;;1.30;0.98;;;19.30;99.90;;;;;;7396062;19;20139;-84
2022/06/25 00:46:32;;;;;;;2.03;1.10;;;19.30;99.90;;;;;;7398069;19;20157;-89
2022/06/25 00:48:57;;;;;;;1.55;0.90;;;19.40;99.90;;;;;;7396644;19;20693;-84
2022/06/25 00:51:28;;;;;;;2.65;1.10;;;19.30;99.90;;;;;;7396988;19;20226;-83
2022/06/25 00:53:58;;;;;;;1.42;1.00;;;19.40;99.90;;;;;;7402019;19;20130;-85
2022/06/25 00:56:27;;;;;;;1.00;0.88;;;19.00;99.90;;;;;;7401980;19;20433;-87
2022/06/25 00:58:58;;;;;;;2.08;0.90;;;19.20;99.90;;;;;;7401934;19;20130;-89
2022/06/25 01:01:24;;;;;;;2.80;1.30;;;19.40;99.90;;;;;;7405892;19;20187;-84
2022/06/25 01:03:50;;;;;;;1.17;1.00;;;19.40;99.90;;;;;;7396010;19;20178;-91
2022/06/25 01:06:16;;;;;;;1.38;1.10;;;19.50;99.90;;;;;;7398854;19;20689;-83
2022/06/25 01:08:45;;;;;;;2.15;1.08;;;19.30;99.90;;;;;;7394577;19;20145;-87
2022/06/25 01:11:11;;;;;;;1.65;1.05;;;19.50;99.90;;;;;;7398949;19;20134;-84
2022/06/25 01:13:37;;;;;;;1.10;1.00;;;19.50;99.90;;;;;;7398383;19;20143;-92
2022/06/25 01:16:03;;;;;;;1.00;0.90;;;19.40;99.90;;;;;;7398587;19;20164;-84
2022/06/25 01:18:29;;;;;;;2.22;1.00;;;19.40;99.90;;;;;;7399718;19;20146;-84
2022/06/25 01:20:55;;;;;;;1.40;1.00;;;19.20;99.90;;;;;;7402871;19;20146;-85
2022/06/25 01:23:21;;;;;;;1.05;0.80;;;19.20;99.90;;;;;;7401390;19;20174;-90
2022/06/25 01:25:47;;;;;;;0.98;0.90;;;19.20;99.90;;;;;;7406102;19;20143;-85
2022/06/25 01:28:13;;;;;;;1.08;0.93;;;19.20;99.90;;;;;;7394334;19;20141;-83
2022/06/25 01:30:39;;;;;;;1.40;1.00;;;19.20;99.90;;;;;;7396843;19;20497;-90
2022/06/25 01:33:09;;;;;;;1.00;0.90;;;19.10;99.90;;;;;;7396759;19;20151;-89
2022/06/25 01:35:35;;;;;;;1.90;1.10;;;19.00;99.90;;;;;;7397188;19;20142;-85
2022/06/25 01:38:02;;;;;;;1.65;0.90;;;19.10;99.90;;;;;;7394629;19;20130;-87
2022/06/25 01:40:31;;;;;;;2.13;1.00;;;19.10;99.90;;;;;;7396439;19;20159;-91
2022/06/25 01:43:00;;;;;;;1.52;1.00;;;19.20;99.90;;;;;;7397830;19;20143;-84
2022/06/25 01:45:31;;;;;;;1.42;1.00;;;19.30;99.90;;;;;;7395841;19;20165;-85
2022/06/25 01:47:59;;;;;;;1.83;0.90;;;19.20;99.90;;;;;;7399927;19;20158;-89
2022/06/25 01:50:26;;;;;;;0.88;0.80;;;19.20;99.90;;;;;;7397478;19;20131;-90
2022/06/25 01:52:53;;;;;;;2.05;1.00;;;19.30;99.90;;;;;;7394845;19;20134;-91
2022/06/25 01:55:19;;;;;;;1.25;1.15;;;19.30;99.90;;;;;;7395286;19;20143;-86
2022/06/25 01:57:46;;;;;;;1.38;0.93;;;19.40;99.90;;;;;;7395306;19;20130;-85
2022/06/25 02:00:24;;;;;;;0.73;0.73;;;19.40;99.90;;;;;;7393215;19;20528;-89
2022/06/25 02:02:50;;;;;;;1.13;1.02;;;19.20;99.90;;;;;;7393728;19;20173;-84
2022/06/25 02:05:56;;;;;;;2.83;0.73;;;19.20;99.90;;;;;;7398951;19;20135;-85
2022/06/25 02:08:04;;;;;;;1.63;0.80;;;19.20;99.90;;;;;;7398834;19;20181;-90
2022/06/25 02:10:30;;;;;;;1.55;0.90;;;19.20;99.90;;;;;;7396680;19;20478;-89
2022/06/25 02:12:56;;;;;;;0.93;0.70;;;19.30;99.90;;;;;;7400228;19;20142;-91
2022/06/25 02:15:22;;;;;;;2.08;1.10;;;19.10;99.90;;;;;;7394358;19;20134;-85
2022/06/25 02:17:47;;;;;;;1.52;0.80;;;19.10;99.90;;;;;;7394924;19;20557;-89
2022/06/25 02:20:13;;;;;;;1.00;0.90;;;19.10;99.90;;;;;;7395341;19;20198;-92
2022/06/25 02:22:39;;;;;;;1.77;0.98;;;19.00;99.90;;;;;;7396662;19;20134;-87
2022/06/25 02:25:05;;;;;;;1.33;0.73;;;19.00;99.90;;;;;;7396211;19;20488;-87
2022/06/25 02:27:30;;;;;;;1.42;0.90;;;19.00;99.90;;;;;;7395664;19;20513;-86
2022/06/25 02:29:56;;;;;;;0.98;0.90;;;19.20;99.90;;;;;;7399836;19;20379;-90
2022/06/25 02:32:22;;;;;;;2.65;1.00;;;19.20;99.90;;;;;;7407130;19;20143;-91
2022/06/25 02:34:48;;;;;;;0.80;0.80;;;19.00;99.90;;;;;;7403045;19;20218;-92
2022/06/25 02:37:13;;;;;;;1.10;1.00;;;18.90;99.90;;;;;;7395993;19;20206;-85
2022/06/25 02:39:39;;;;;;;3.08;1.10;;;18.90;99.90;;;;;;7396134;19;20511;-86
2022/06/25 02:42:05;;;;;;;1.90;1.20;;;19.00;99.90;;;;;;7392674;19;20153;-90
2022/06/25 02:44:31;;;;;;;2.58;1.17;;;19.00;99.90;;;;;;7395005;19;20151;-92
2022/06/25 02:46:57;;;;;;;2.63;0.90;;;19.00;99.90;;;;;;7399892;19;20284;-91
2022/06/25 02:49:22;;;;;;;1.27;1.00;;;19.00;99.90;;;;;;7395823;19;20174;-88
2022/06/25 02:51:48;;;;;;;1.33;0.90;;;19.00;99.90;;;;;;7402623;19;20163;-86
2022/06/25 02:54:15;;;;;;;1.48;1.08;;;18.90;99.90;;;;;;7399520;19;20159;-92
2022/06/25 02:59:28;;;;;;;1.65;0.90;;;18.70;99.90;;;;;;7394704;19;20543;-86
2022/06/25 03:01:55;;;;;;;3.35;0.82;;;18.50;99.90;;;;;;7396037;19;20189;-92
2022/06/25 03:04:24;;;;;;;2.78;0.90;;;18.20;99.90;;;;;;7394263;19;20158;-93
2022/06/25 03:06:51;;;;;;;0.77;0.75;;;18.60;99.90;;;;;;7400079;19;20154;-91
2022/06/25 03:09:17;;;;;;;2.90;0.63;;;18.60;99.90;;;;;;7399027;19;20158;-92
2022/06/25 03:11:43;;;;;;;0.80;0.80;;;18.70;99.90;;;;;;7398590;19;20131;-91
2022/06/25 03:14:08;;;;;;;2.05;1.20;;;18.80;99.90;;;;;;7396274;19;20131;-85
2022/06/25 03:16:34;;;;;;;3.13;0.95;;;18.90;99.90;;;;;;7400583;19;20159;-90
2022/06/25 03:19:03;;;;;;;4.20;0.90;;;19.00;99.90;;;;;;7398636;19;20771;-90
2022/06/25 03:21:29;;;;;;;3.30;1.10;;;18.90;99.90;;;;;;7396522;19;20145;-90
2022/06/25 03:23:55;;;;;;;0.90;0.60;;;18.90;99.90;;;;;;7395643;19;20158;-91
2022/06/25 03:26:21;;;;;;;1.42;0.80;;;18.70;99.90;;;;;;7394148;19;20139;-90
2022/06/25 03:28:47;;;;;;;4.03;1.20;;;18.80;99.90;;;;;;7394893;19;21017;-91
2022/06/25 03:31:13;;;;;;;0.70;0.70;;;18.90;99.90;;;;;;7393298;19;20135;-90
2022/06/25 03:33:39;;;;;;;1.60;0.75;;;18.90;99.90;;;;;;7394719;19;20157;-90
2022/06/25 03:36:05;;;;;;;2.55;0.80;;;19.00;99.90;;;;;;7395600;19;20131;-90
2022/06/25 03:38:31;;;;;;;1.80;1.00;;;19.00;99.90;;;;;;7396343;19;20142;-85
2022/06/25 03:43:42;;;;;;;2.92;1.17;;;19.10;99.90;;;;;;7394893;19;20134;-84
2022/06/25 03:46:07;;;;;;;2.28;0.80;;;19.10;99.90;;;;;;7395056;19;20498;-90
2022/06/25 03:48:34;;;;;;;1.70;1.00;;;19.00;99.90;;;;;;7393923;19;20191;-91
2022/06/25 03:51:00;;;;;;;1.63;1.20;;;19.00;99.90;;;;;;7396148;19;20134;-91
2022/06/25 03:53:26;;;;;;;1.27;0.90;;;19.00;99.90;;;;;;7396543;19;20150;-84
2022/06/25 03:55:52;;;;;;;1.27;1.00;;;19.00;99.90;;;;;;7397505;19;20143;-85
2022/06/25 03:58:18;;;;;;;2.22;1.08;;;18.90;99.90;;;;;;7403335;19;20150;-90
2022/06/25 04:00:44;;;;;;;0.93;0.90;;;18.90;99.90;;;;;;7404180;19;20146;-91
2022/06/25 04:03:10;;;;;;;1.20;0.98;;;19.00;99.90;;;;;;7406415;19;20178;-86
2022/06/25 04:05:36;;;;;;;1.38;0.90;;;18.90;99.90;;;;;;7405896;19;20131;-89
2022/06/25 04:08:01;;;;;;;3.15;1.33;;;18.90;99.90;;;;;;7400265;19;20135;-85
2022/06/25 04:10:27;;;;;;;3.85;0.95;;;18.80;99.90;;;;;;7399242;19;20142;-85
2022/06/25 04:12:53;;;;;;;1.65;1.00;;;18.80;99.90;;;;;;7401971;19;20133;-90
2022/06/25 04:15:19;;;;;;;1.00;0.90;;;18.70;99.90;;;;;;7402257;19;20135;-89
2022/06/25 04:17:45;;;;;;;0.85;0.82;;;18.60;99.90;;;;;;7399717;19;20151;-85
2022/06/25 04:20:11;;;;;;;1.45;0.90;;;18.60;99.90;;;;;;7397763;19;20593;-91
2022/06/25 04:22:37;;;;;;;1.00;0.90;;;18.70;99.90;;;;;;7398720;19;20159;-88
2022/06/25 04:25:03;;;;;;;1.00;0.80;;;18.50;99.90;;;;;;7401752;19;20516;-84
2022/06/25 04:30:13;;;;;;;3.15;0.73;;;18.20;99.90;;;;;;7405562;19;20138;-83
2022/06/25 04:32:39;;;;;;;3.42;0.80;;;18.50;99.90;;;;;;7410594;19;20165;-92
2022/06/25 04:35:06;;;;;;;2.28;0.90;;;18.60;99.90;;;;;;7400501;19;20217;-90
2022/06/25 04:37:32;;;;;;;1.50;0.70;;;18.70;99.90;;;;;;7401350;19;20130;-95
2022/06/25 04:39:57;;;;;;;0.95;0.80;;;18.60;99.90;;;;;;7401562;19;20230;-94
2022/06/25 04:42:23;;;;;;;0.80;0.80;;;18.30;99.90;;;;;;7403035;19;20149;-93
2022/06/25 04:44:49;;;;;;;2.38;0.90;;;18.30;99.90;;;;;;7404579;19;20530;-91
2022/06/25 04:47:15;;;;;;;1.40;1.10;;;18.70;99.90;;;;;;7401571;19;20174;-86
2022/06/25 04:49:41;;;;;;;1.75;0.82;;;18.70;99.90;;;;;;7402291;19;20146;-85
2022/06/25 04:52:07;;;;;;;2.75;0.90;;;18.50;99.90;;;;;;7407443;19;20134;-91
2022/06/25 04:54:32;;;;;;;1.30;0.90;;;18.70;99.90;;;;;;7408894;19;20162;-89
2022/06/25 04:56:58;;;;;;;0.73;0.73;;;18.80;99.90;;;;;;7401143;19;20587;-87
2022/06/25 04:59:24;;;;;;;2.88;0.90;;;18.50;99.90;;;;;;7400015;19;20135;-85
2022/06/25 05:01:51;;;;;;;0.98;0.80;;;18.70;99.90;;;;;;7398844;19;20134;-85
2022/06/25 05:04:17;;;;;;;1.10;0.82;;;18.80;99.90;;;;;;7396323;19;20159;-85
2022/06/25 05:06:44;;;;;;;1.85;0.80;;;18.90;99.90;;;;;;7400536;19;20880;-86
2022/06/25 05:09:10;;;;;;;1.83;1.00;;;18.80;99.90;;;;;;7400352;19;20163;-86
2022/06/25 05:11:36;;;;;;;0.80;0.70;;;18.90;99.90;;;;;;7400997;19;20216;-89
2022/06/25 05:14:02;;;;;;;2.95;0.73;;;18.50;99.90;;;;;;7400997;19;20147;-91
2022/06/25 05:16:27;;;;;;;1.38;0.90;;;18.50;99.90;;;;;;7405703;19;20477;-90
2022/06/25 05:18:53;;;;;;;1.25;0.70;;;18.70;99.90;;;;;;7407139;19;20150;-90
2022/06/25 05:21:19;;;;;;;3.58;0.80;;;18.80;99.90;;;;;;7400015;19;20134;-90
2022/06/25 05:23:45;;;;;;;1.20;0.68;;;18.90;99.90;;;;;;7403703;19;20139;-85
2022/06/25 05:26:11;;;;;;;2.25;0.95;;;19.00;99.90;;;;;;7400905;19;20143;-95
2022/06/25 05:28:37;;;;;;;1.58;0.77;;;19.20;99.90;;;;;;7400316;19;20134;-85
2022/06/25 05:31:03;;;;;;;1.08;0.70;;;19.10;99.90;;;;;;7401881;19;20162;-86
2022/06/25 05:33:29;;;;;;;2.95;1.00;;;19.10;99.90;;;;;;7406990;19;20131;-92
2022/06/25 05:35:55;;;;;;;2.58;0.90;;;18.90;99.90;;;;;;7410080;19;20154;-93
2022/06/25 05:38:21;;;;;;;0.70;0.70;;;19.20;99.90;;;;;;7408159;19;20677;-94
2022/06/25 05:40:47;;;;;;;3.28;1.00;;;19.30;99.90;;;;;;7398067;19;20141;-87
2022/06/25 05:43:13;;;;;;;1.23;0.80;;;19.30;99.90;;;;;;7399189;19;20142;-86
2022/06/25 05:45:39;;;;;;;2.25;0.70;;;19.20;99.90;;;;;;7397822;19;20138;-86
2022/06/25 05:48:05;;;;;;;2.47;0.75;;;19.30;99.90;;;;;;7398973;19;20226;-86
2022/06/25 05:50:31;;;;;;;1.77;0.90;;;19.40;99.90;;;;;;7402979;19;20593;-89
2022/06/25 05:52:57;;;;;;;2.45;0.80;;;19.40;99.90;;;;;;7404859;19;20123;-93
2022/06/25 05:55:24;;;;;;;2.28;0.90;;;19.40;99.90;;;;;;7399812;19;20162;-92
2022/06/25 05:57:50;;;;;;;1.15;0.80;;;19.40;99.90;;;;;;7407098;19;20143;-85
2022/06/25 06:00:17;;;;;;;0.70;0.68;;;19.50;99.90;;;;;;7405226;19;20150;-85
2022/06/25 06:02:43;;;;;;;0.85;0.70;;;19.60;99.90;;;;;;7397460;19;20157;-90
2022/06/25 06:05:08;;;;;;;0.93;0.65;;;19.50;99.90;;;;;;7396981;19;20131;-84
2022/06/25 06:07:34;;;;;;;2.83;0.80;;;19.40;99.90;;;;;;7398094;19;20629;-90
2022/06/25 06:10:00;;;;;;;1.33;0.90;;;19.60;99.90;;;;;;7396805;19;20146;-92
2022/06/25 06:12:27;;;;;;;0.73;0.73;;;19.80;99.90;;;;;;7396679;19;20169;-84
2022/06/25 06:14:53;;;;;;;4.57;1.33;;;20.20;99.90;;;;;;7396993;19;20147;-92
2022/06/25 06:17:18;;;;;;;2.45;0.73;;;21.00;99.90;;;;;;7396624;19;20164;-86
2022/06/25 06:19:44;;;;;;;2.22;0.90;;;21.80;99.90;;;;;;7392465;19;20174;-85
2022/06/25 06:22:10;;;;;;;1.83;0.90;;;22.10;99.90;;;;;;7403045;19;20142;-89
2022/06/25 06:24:36;;;;;;;1.45;0.73;;;22.50;99.90;;;;;;7403611;19;20147;-90
2022/06/25 06:27:02;;;;;;;2.88;0.80;;;23.20;99.90;;;;;;7396099;19;20169;-88
2022/06/25 06:29:29;;;;;;;0.70;0.65;;;23.70;99.90;;;;;;7397024;19;20569;-88
2022/06/25 06:31:55;;;;;;;0.73;0.70;;;23.90;99.90;;;;;;7394883;19;20241;-86
2022/06/25 06:34:20;;;;;;;2.67;0.75;;;24.60;99.90;;;;;;7397965;19;20137;-86
2022/06/25 06:36:46;;;;;;;2.95;0.65;;;25.20;99.90;;;;;;7394156;19;20154;-85
2022/06/25 06:39:12;;;;;;;0.70;0.50;;;25.10;99.90;;;;;;7398872;19;20680;-84
2022/06/25 06:41:39;;;;;;;1.65;0.88;;;25.50;99.90;;;;;;7410620;19;20164;-88
2022/06/25 06:44:05;;;;;;;1.60;0.77;;;25.80;99.90;;;;;;7411644;19;20299;-94
2022/06/25 06:46:31;;;;;;;1.42;0.60;;;26.00;99.90;;;;;;7400944;19;20146;-84
2022/06/25 06:48:57;;;;;;;1.08;0.60;;;25.20;99.90;;;;;;7397622;19;20480;-86
2022/06/25 06:51:22;;;;;;;1.52;0.70;;;26.00;99.90;;;;;;7396157;19;20150;-93
2022/06/25 06:53:48;;;;;;;1.60;0.75;;;26.40;99.90;;;;;;7398780;19;20127;-84
2022/06/25 06:56:14;;;;;;;2.00;0.70;;;26.80;99.90;;;;;;7397373;19;20138;-93
2022/06/25 06:58:40;;;;;;;2.38;1.80;;;26.80;99.90;;;;;;7395849;19;20159;-89
2022/06/25 07:01:05;;;;;;;3.22;1.88;;;26.70;99.90;;;;;;7394237;19;20142;-85
2022/06/25 07:03:31;;;;;;;3.25;0.90;;;26.90;99.90;;;;;;7399467;19;20146;-93
2022/06/25 07:05:57;;;;;;;1.58;1.20;;;27.20;99.90;;;;;;7399210;19;20150;-85
2022/06/25 07:08:23;;;;;;;1.15;0.98;;;27.30;99.90;;;;;;7396376;19;20145;-85
2022/06/25 07:10:49;;;;;;;1.23;0.70;;;26.90;99.90;;;;;;7394277;19;20661;-84
2022/06/25 07:13:14;;;;;;;1.42;1.00;;;27.30;99.90;;;;;;7396952;19;20144;-90
2022/06/25 07:15:40;;;;;;;1.13;0.80;;;27.40;99.90;;;;;;7393326;19;20153;-83
2022/06/25 07:18:06;;;;;;;3.80;0.70;;;27.20;99.90;;;;;;7394865;19;20131;-89
2022/06/25 07:20:32;;;;;;;2.42;0.63;;;27.40;99.90;;;;;;7389645;19;20162;-83
2022/06/25 07:22:58;;;;;;;1.08;0.98;;;27.30;99.90;;;;;;7392607;19;20509;-88
2022/06/25 07:25:24;;;;;;;2.92;0.88;;;27.00;99.90;;;;;;7392927;19;20154;-86
2022/06/25 07:27:50;;;;;;;0.73;0.70;;;27.30;99.90;;;;;;7392631;19;20160;-82
2022/06/25 07:30:16;;;;;;;1.42;0.60;;;27.30;99.90;;;;;;7405712;19;20906;-82
2022/06/25 07:32:42;;;;;;;1.65;0.70;;;27.50;99.90;;;;;;7403094;19;20174;-89
2022/06/25 07:35:08;;;;;;;1.02;0.82;;;27.60;99.90;;;;;;7401418;19;20134;-81
2022/06/25 07:37:36;;;;;;;2.97;0.80;;;27.60;99.90;;;;;;7399625;19;20198;-83
2022/06/25 07:40:03;;;;;;;1.83;1.13;;;27.50;99.90;;;;;;7402586;19;20139;-86
2022/06/25 07:42:30;;;;;;;3.35;1.30;;;27.60;99.90;;;;;;7397959;19;20161;-81
2022/06/25 07:44:56;;;;;;;2.25;1.45;;;27.10;99.90;;;;;;7402033;19;20170;-88
2022/06/25 07:47:22;;;;;;;1.02;0.75;;;27.20;99.90;;;;;;7396193;19;20282;-85
2022/06/25 07:52:32;;;;;;;1.48;0.80;;;27.70;99.90;;;;;;7416500;19;20207;-88
2022/06/25 07:54:59;;;;;;;0.80;0.63;;;27.90;99.90;;;;;;7411909;19;20147;-84
2022/06/25 07:57:25;;;;;;;0.88;0.73;;;28.00;99.90;;;;;;7397460;19;20157;-79
2022/06/25 07:59:51;;;;;;;1.73;0.77;;;28.10;99.90;;;;;;7399659;19;20135;-82
2022/06/25 08:02:16;;;;;;;3.25;0.93;;;28.40;99.90;;;;;;7394299;19;20146;-87
2022/06/25 08:04:42;;;;;;;1.33;1.05;;;28.60;99.90;;;;;;7393118;19;20197;-81
2022/06/25 08:07:08;;;;;;;1.23;0.80;;;28.60;99.90;;;;;;7395346;19;20153;-85
2022/06/25 08:09:34;;;;;;;2.78;0.90;;;28.10;99.90;;;;;;7395680;19;20614;-81
2022/06/25 08:12:00;;;;;;;1.67;0.80;;;28.20;99.90;;;;;;7399611;19;20146;-83
2022/06/25 08:14:26;;;;;;;1.25;0.95;;;28.40;99.90;;;;;;7402810;19;20131;-80
2022/06/25 08:16:52;;;;;;;1.65;0.80;;;27.80;99.90;;;;;;7396012;19;20202;-87
2022/06/25 08:19:18;;;;;;;1.48;0.98;;;27.60;99.90;;;;;;7395071;19;20170;-80
2022/06/25 08:21:43;;;;;;;1.52;0.90;;;27.10;99.90;;;;;;7396087;19;20138;-78
2022/06/25 08:24:09;;;;;;;0.90;0.90;;;26.00;99.90;;;;;;7394696;19;20565;-80
2022/06/25 08:26:35;;;;;;;2.05;1.42;;;25.40;99.90;;;;;;7396143;19;20506;-82
2022/06/25 08:29:01;;;;;;;3.00;1.00;;;25.50;99.90;;;;;;7394366;19;20134;-79
2022/06/25 08:31:28;;;;;;;2.45;0.65;;;26.30;99.90;;;;;;7401073;19;20142;-88
2022/06/25 08:33:53;;;;;;;2.17;0.85;;;26.60;99.90;;;;;;7403440;19;20135;-82
2022/06/25 08:36:19;;;;;;;9.18;1.00;;;26.90;99.90;;;;;;7397462;19;20581;-80
2022/06/25 08:38:45;;;;;;;0.95;0.88;;;27.10;99.90;;;;;;7398467;19;20134;-80
2022/06/25 08:41:11;;;;;;;1.23;1.00;;;26.60;99.90;;;;;;7398738;19;20139;-86
2022/06/25 08:43:38;;;;;;;1.02;0.93;;;26.20;99.90;;;;;;7395720;19;20147;-84
2022/06/25 08:46:05;;;;;;;1.35;0.95;;;25.60;99.90;;;;;;7396738;19;20164;-88
2022/06/25 08:48:34;;;;;;;4.60;0.90;;;25.60;99.90;;;;;;7399124;19;20202;-82
2022/06/25 08:51:01;;;;;;;4.95;3.67;;;26.10;99.90;;;;;;7397569;19;20153;-79
2022/06/25 08:53:32;;;;;;;3.35;2.28;;;25.90;99.90;;;;;;7396769;19;20146;-79
2022/06/25 08:55:58;;;;;;;2.55;1.52;;;25.60;99.90;;;;;;7402121;19;20138;-75
2022/06/25 08:58:24;;;;;;;0.93;0.88;;;25.50;99.90;;;;;;7402836;19;20140;-85
2022/06/25 09:00:50;;;;;;;2.05;1.20;;;25.40;99.90;;;;;;7395645;19;20138;-79
2022/06/25 09:03:16;;;;;;;2.30;1.08;;;25.00;99.90;;;;;;7391787;19;20146;-76
2022/06/25 09:05:43;;;;;;;4.40;1.10;;;25.30;99.90;;;;;;7394626;19;20160;-77
2022/06/25 09:08:12;;;;;;;1.55;0.98;;;25.70;99.90;;;;;;7393411;19;20142;-78
2022/06/25 09:10:39;;;;;;;1.00;0.90;;;25.60;99.90;;;;;;7397812;19;20142;-84
2022/06/25 09:13:08;;;;;;;1.80;1.50;;;25.50;99.90;;;;;;7393128;19;20188;-84
2022/06/25 09:15:34;;;;;;;4.30;1.10;;;25.40;99.90;;;;;;7394434;19;20221;-84
2022/06/25 09:18:14;;;;;;;1.05;0.95;;;25.30;99.90;;;;;;7398114;19;20226;-77
2022/06/25 09:21:05;;;;;;;1.65;1.10;;;25.20;99.90;;;;;;7387400;19;20168;-84
2022/06/25 09:23:33;;;;;;;3.17;1.65;;;24.90;99.90;;;;;;7395237;19;20202;-76
2022/06/25 09:26:12;;;;;;;2.75;1.20;;;25.10;99.90;;;;;;7393505;19;20187;-84
2022/06/25 09:28:44;;;;;;;1.70;1.05;;;25.30;99.90;;;;;;7393652;19;20600;-88
2022/06/25 09:31:10;;;;;;;1.13;1.00;;;25.20;99.90;;;;;;7397773;19;20137;-86
2022/06/25 09:33:38;;;;;;;1.45;1.08;;;25.00;99.90;;;;;;7397316;19;20150;-86
2022/06/25 09:36:06;;;;;;;1.48;1.10;;;24.90;99.90;;;;;;7394780;19;20495;-84
2022/06/25 09:38:32;;;;;;;1.42;0.93;;;24.70;99.90;;;;;;7398178;19;20608;-76
2022/06/25 09:41:00;;;;;;;1.73;0.95;;;24.60;99.90;;;;;;7400697;19;20131;-76
2022/06/25 09:43:28;;;;;;;2.45;1.00;;;24.60;99.90;;;;;;7388847;19;20154;-77
2022/06/25 09:46:03;;;;;;;2.45;0.90;;;24.70;99.90;;;;;;7391447;19;20217;-77
2022/06/25 09:48:32;;;;;;;1.30;0.90;;;25.20;99.90;;;;;;7390787;19;20146;-74
2022/06/25 09:51:15;;;;;;;0.95;0.70;;;25.70;99.90;;;;;;7390451;19;20166;-83
2022/06/25 09:53:51;;;;;;;1.98;1.23;;;26.00;99.90;;;;;;7391017;19;20179;-83
2022/06/25 09:56:26;;;;;;;2.88;1.20;;;26.00;99.90;;;;;;7390445;19;20916;-82
2022/06/25 09:58:53;;;;;;;1.00;0.80;;;25.80;99.90;;;;;;7398624;19;20134;-85
2022/06/25 10:01:24;;;;;;;3.63;1.20;;;25.70;99.90;;;;;;7391236;19;20135;-81
2022/06/25 10:03:51;;;;;;;1.00;0.90;;;25.30;99.90;;;;;;7389606;19;20477;-76
2022/06/25 10:06:19;;;;;;;1.20;1.10;;;24.90;99.90;;;;;;7387720;19;20147;-83
2022/06/25 10:08:49;;;;;;;3.30;1.70;;;24.70;99.90;;;;;;7392119;19;20134;-82
2022/06/25 10:11:17;;;;;;;2.28;1.02;;;24.80;99.90;;;;;;7388293;19;20605;-74
2022/06/25 10:13:43;;;;;;;1.20;1.10;;;25.00;99.90;;;;;;7391341;19;20135;-82
2022/06/25 10:16:09;;;;;;;2.17;1.05;;;25.20;99.90;;;;;;7398277;19;20131;-74
2022/06/25 10:18:36;;;;;;;1.38;1.05;;;25.30;99.90;;;;;;7392467;19;20601;-79
2022/06/25 10:21:02;;;;;;;0.95;0.80;;;25.50;99.90;;;;;;7390295;19;20162;-77
2022/06/25 10:23:32;;;;;;;1.38;0.82;;;25.60;99.90;;;;;;7387926;19;20163;-83
2022/06/25 10:25:58;;;;;;;1.58;0.70;;;25.70;99.90;;;;;;7390276;19;20210;-86
2022/06/25 10:28:27;;;;;;;1.70;1.20;;;25.80;99.90;;;;;;7391338;19;20137;-77
2022/06/25 10:30:57;;;;;;;2.65;1.50;;;25.90;99.90;;;;;;7390287;19;20579;-76
2022/06/25 10:33:30;;;;;;;1.48;1.10;;;25.90;99.90;;;;;;7391582;19;20466;-83
2022/06/25 10:35:57;;;;;;;0.75;0.75;;;25.70;99.90;;;;;;7398089;19;20123;-75
2022/06/25 10:38:25;;;;;;;1.60;1.00;;;25.70;99.90;;;;;;7395827;19;20593;-76
2022/06/25 10:43:52;;;;;;;2.60;0.90;;;25.60;99.90;;;;;;7390641;19;20135;-81
2022/06/25 10:46:19;;;;;;;1.20;0.90;;;25.70;99.90;;;;;;7388037;19;20146;-81
2022/06/25 10:49:04;;;;;;;2.65;1.02;;;25.70;99.90;;;;;;7386972;19;20214;-75
2022/06/25 10:51:34;;;;;;;1.77;1.00;;;25.80;99.90;;;;;;7389173;19;20138;-76
2022/06/25 10:54:02;;;;;;;3.28;1.00;;;25.90;99.90;;;;;;7390839;19;20145;-74
2022/06/25 10:56:45;;;;;;;0.95;0.80;;;26.00;99.90;;;;;;7388705;19;20173;-73
2022/06/25 10:59:39;;;;;;;1.45;0.93;;;26.10;99.90;;;;;;7388227;19;20154;-74
2022/06/25 11:02:07;;;;;;;1.20;1.10;;;26.00;99.90;;;;;;7392793;19;20127;-74
2022/06/25 11:04:33;;;;;;;2.63;1.00;;;25.80;99.90;;;;;;7385491;19;20332;-80
2022/06/25 11:07:11;;;;;;;1.55;1.10;;;25.70;99.90;;;;;;7395389;19;20158;-81
2022/06/25 11:09:55;;;;;;;1.92;1.17;;;25.70;99.90;;;;;;7394070;19;20744;-73
2022/06/25 11:12:21;;;;;;;1.73;1.05;;;25.70;99.90;;;;;;7397918;19;20161;-75
2022/06/25 11:15:07;;;;;;;3.38;1.13;;;25.70;99.90;;;;;;7398857;19;20127;-82
2022/06/25 11:17:33;;;;;;;0.93;0.80;;;25.90;99.90;;;;;;7398547;19;20668;-74
2022/06/25 11:20:11;;;;;;;2.95;0.93;;;25.90;99.90;;;;;;7397543;19;20154;-76
2022/06/25 11:22:51;;;;;;;2.65;1.10;;;25.90;99.90;;;;;;7397429;19;20145;-75
2022/06/25 11:31:02;;;;;;;2.35;0.90;;;26.20;99.90;;;;;;7394524;19;20138;-77
2022/06/25 11:33:28;;;;;;;3.05;1.30;;;26.40;99.90;;;;;;7396547;19;20201;-82
2022/06/25 11:35:53;;;;;;;1.23;1.00;;;26.50;99.90;;;;;;7396704;19;20155;-76
2022/06/25 11:38:20;;;;;;;1.70;1.13;;;26.40;99.90;;;;;;7395489;19;20163;-82
2022/06/25 11:40:46;;;;;;;2.45;1.00;;;26.50;99.90;;;;;;7394816;19;20127;-76
2022/06/25 11:43:14;;;;;;;2.13;0.90;;;26.80;99.90;;;;;;7397092;19;20539;-83
2022/06/25 11:45:59;;;;;;;1.20;0.93;;;26.60;99.70;;;;;;7396099;19;20157;-75
2022/06/25 11:48:26;;;;;;;1.48;1.00;;;26.80;99.90;;;;;;7393094;19;20174;-76
2022/06/25 11:51:10;;;;;;;1.48;0.90;;;26.80;99.40;;;;;;7392778;19;20142;-75
2022/06/25 11:53:36;;;;;;;2.45;1.00;;;27.00;98.50;;;;;;7397548;19;20647;-75
2022/06/25 11:56:04;;;;;;;0.90;0.77;;;26.70;99.00;;;;;;7395779;19;20839;-85
2022/06/25 11:58:32;;;;;;;1.30;0.80;;;26.50;99.00;;;;;;7398182;19;20158;-71
2022/06/25 12:01:00;;;;;;;1.60;0.98;;;26.70;98.80;;;;;;7396437;19;20157;-75
2022/06/25 12:03:27;;;;;;;4.30;1.48;;;26.70;99.00;;;;;;7402846;19;20157;-82
2022/06/25 12:05:58;;;;;;;3.50;3.20;;;26.60;98.60;;;;;;7396457;19;20585;-77
2022/06/25 12:08:24;;;;;;;2.75;1.00;;;26.80;96.70;;;;;;7396057;19;20619;-82
2022/06/25 12:10:51;;;;;;;2.28;0.93;;;26.70;97.80;;;;;;7398595;19;20503;-77
2022/06/25 12:13:20;;;;;;;0.90;0.80;;;26.50;98.00;;;;;;7395512;19;20142;-77
2022/06/25 12:15:47;;;;;;;0.95;0.95;;;26.60;97.50;;;;;;7397045;19;20163;-83
2022/06/25 12:18:13;;;;;;;1.30;0.98;;;26.60;97.60;;;;;;7394635;19;20167;-77
2022/06/25 12:20:56;;;;;;;1.25;0.90;;;26.80;97.10;;;;;;7402774;19;20193;-78
2022/06/25 12:23:22;;;;;;;1.10;1.00;;;27.00;97.00;;;;;;7395963;19;20138;-83
2022/06/25 12:25:48;;;;;;;1.40;0.95;;;26.80;96.90;;;;;;7391922;19;20146;-82
2022/06/25 12:28:15;;;;;;;0.73;0.73;;;26.80;97.40;;;;;;7391224;19;20127;-80
2022/06/25 12:30:41;;;;;;;1.75;1.40;;;26.70;99.90;;;;;;7391331;19;20138;-77
2022/06/25 12:33:14;;;;;;;2.22;0.90;;;26.70;98.60;;;;;;7390320;19;20592;-82
2022/06/25 12:35:45;;;;;;;1.33;0.98;;;26.80;97.20;;;;;;7392513;19;20139;-76
2022/06/25 12:38:11;;;;;;;1.00;0.90;;;26.80;96.90;;;;;;7393167;19;20485;-76
2022/06/25 12:40:51;;;;;;;1.02;0.95;;;26.60;97.60;;;;;;7394617;19;20535;-78
2022/06/25 12:43:18;;;;;;;1.92;0.88;;;26.40;97.40;;;;;;7393140;19;20181;-76
2022/06/25 12:45:46;;;;;;;4.72;1.08;;;26.30;97.70;;;;;;7391278;19;20150;-75
2022/06/25 12:48:13;;;;;;;0.80;0.70;;;26.40;97.50;;;;;;7392392;19;20163;-76
2022/06/25 12:50:40;;;;;;;0.88;0.82;;;26.40;97.80;;;;;;7393537;19;20146;-83
2022/06/25 12:53:13;;;;;;;0.82;0.60;;;26.40;99.00;;;;;;7396047;19;20147;-84
2022/06/25 12:55:43;;;;;;;2.72;1.20;;;26.40;97.30;;;;;;7396540;19;20146;-75
2022/06/25 12:58:12;;;;;;;2.17;1.98;;;26.50;96.50;;;;;;7394407;19;20131;-80
2022/06/25 13:00:39;;;;;;;2.97;1.10;;;26.80;96.60;;;;;;7395177;19;20376;-81
2022/06/25 13:03:05;;;;;;;1.92;1.02;;;26.90;96.10;;;;;;7392800;19;20153;-81
2022/06/25 13:05:31;;;;;;;1.52;0.90;;;26.80;97.30;;;;;;7393850;19;20153;-74
2022/06/25 13:07:57;;;;;;;1.48;0.98;;;26.80;96.20;;;;;;7392794;19;20155;-74
2022/06/25 13:10:24;;;;;;;0.60;0.60;;;26.70;97.50;;;;;;7396042;19;20156;-76
2022/06/25 13:12:50;;;;;;;1.70;0.80;;;26.80;97.00;;;;;;7395914;19;20143;-82
2022/06/25 13:15:16;;;;;;;1.15;0.80;;;26.50;98.70;;;;;;7397500;19;20295;-74